SBRP

Details ICAO SBRP (RAO)
Name LEITE LOPES
Region Brazil
Timezone America/Sao_Paulo (UTC-2.0)
Plans Departing 65
Arriving 45
Stats Elevation 1,802 ft / 549 m (AMSL)
Location -21.134166° -47.774189°
Runways 1
Magnetic Variation 21.204° W
Sunrise 2017-12-16 08:25:50 UTC / 2017-12-16 06:25:50 Local
Sunset 2017-12-16 21:50:31 UTC / 2017-12-16 19:50:31 Local
Advertisement - Login to hide

Runways

ID Width Length Bearing (true) Bearing (mag) Surface Threshold Offset Overrun Length
18 115 ft / 35 m 6,918 ft / 2,109 m 163.40° 184.60° Asphalt 657 ft / 200 m 0 ft / 0 m
36 115 ft / 35 m 6,918 ft / 2,109 m 343.40° 4.60° Asphalt 328 ft / 100 m 0 ft / 0 m

Map

Weather


0- 5 10 15 20 25 30 35+ Temperature / ° C

Clouds and Precipitation
Forecast for 2017-12-16 18:00 UTC. Updated 2 hours ago

Ground ~20,000 ft ~40,000 ft Winds

METAR

SBRP 161900Z 00000KT 9999 SCT040 26/20 Q1012

TAF

TAF SBRP 160915Z 1612/1712 05008KT CAVOK TX32/1617Z TN20/1709Z BECMG 1614/1616 SCT040 PROB30 1618/1622 33007KT TSRA SCT040 FEW045CB BECMG 1622/1624 15005KT CAVOK BECMG 1702/1704 00000KT RMK PGN

Frequencies

Recorded 127.42 MHz ATIS
Tower 118.00 MHz RIBEIRAO TWR
Tower 118.00 MHz RIBEIRAO RDO
Approach 119.55 MHz RIBEIRAO APP
Warning: Do not use this data for real-world aviation or navigation. No guarantee of current accuracy is given.